createdAt,value
2022-08-10T00:01:31.932Z,102641.53
2022-08-10T00:03:58.860Z,102644.13
2022-08-10T00:06:25.789Z,102647.66
2022-08-10T00:08:54.651Z,102652.94
2022-08-10T00:11:21.588Z,102642.38
2022-08-10T00:13:48.526Z,102649.38
2022-08-10T00:16:15.629Z,102659.94
2022-08-10T00:18:42.925Z,102665.22
2022-08-10T00:21:10.682Z,102660.75
2022-08-10T00:23:38.339Z,102663.34
2022-08-10T00:26:06.174Z,102663.34
2022-08-10T00:28:33.428Z,102662.47
2022-08-10T00:31:00.536Z,102654.56
2022-08-10T00:33:27.487Z,102658.03
2022-08-10T00:35:54.436Z,102660.59
2022-08-10T00:38:21.327Z,102654.41
2022-08-10T00:40:48.242Z,102656.16
2022-08-10T00:43:15.163Z,102655.25
2022-08-10T00:45:59.874Z,102648.25
2022-08-10T00:48:29.723Z,102651.75
2022-08-10T00:50:58.989Z,102654.38
2022-08-10T00:53:28.403Z,102652.63
2022-08-10T00:57:12.603Z,102642.94
2022-08-10T00:58:43.332Z,102651.72
2022-08-10T01:01:23.572Z,102651.72
2022-08-10T01:04:58.090Z,102648.19
2022-08-10T01:07:05.527Z,102647.28
2022-08-10T01:09:44.343Z,102642.91
2022-08-10T01:12:40.421Z,102640.25
2022-08-10T01:15:29.963Z,102649.88
2022-08-10T01:18:26.901Z,102640.22
2022-08-10T01:21:53.898Z,102647.19
2022-08-10T01:25:04.167Z,102642.78
2022-08-10T01:27:59.524Z,102640.16
2022-08-10T01:30:30.157Z,102640.09
2022-08-10T01:33:12.120Z,102639.19
2022-08-10T01:35:55.384Z,102639.22
2022-08-10T01:38:34.633Z,102639.16
2022-08-10T01:41:14.260Z,102637.38
2022-08-10T01:43:50.420Z,102638.25
2022-08-10T01:46:19.363Z,102638.22
2022-08-10T01:48:53.749Z,102639.91
2022-08-10T01:51:26.991Z,102631.06
2022-08-10T01:54:02.577Z,102631.88
2022-08-10T01:56:34.251Z,102633.63
2022-08-10T01:59:19.517Z,102630.06
2022-08-10T02:01:51.842Z,102627.38
2022-08-10T02:04:21.013Z,102629.13
2022-08-10T02:06:51.808Z,102627.34
2022-08-10T02:09:26.855Z,102631.66
2022-08-10T02:12:07.208Z,102630.72
2022-08-10T02:14:43.583Z,102639.34
2022-08-10T02:17:59.219Z,102648.09
2022-08-10T02:20:18.914Z,102650.59
2022-08-10T02:22:52.709Z,102647.00
2022-08-10T02:25:41.476Z,102653.09
2022-08-10T02:28:11.451Z,102647.84
2022-08-10T02:30:39.265Z,102639.91
2022-08-10T02:33:09.379Z,102647.91
2022-08-10T02:35:55.428Z,102635.63
2022-08-10T02:38:59.236Z,102633.06
2022-08-10T02:45:15.100Z,102635.69
2022-08-10T02:45:29.154Z,102639.09
2022-08-10T02:47:51.431Z,102635.53
2022-08-10T02:50:36.963Z,102649.53
2022-08-10T02:53:54.755Z,102646.03
2022-08-10T02:56:30.346Z,102645.13
2022-08-10T02:59:03.728Z,102640.72
2022-08-10T03:01:42.223Z,102640.72
2022-08-10T03:04:55.185Z,102648.59
2022-08-10T03:07:12.223Z,102646.81
2022-08-10T03:09:41.280Z,102657.31
2022-08-10T03:12:37.479Z,102654.69
2022-08-10T03:14:59.905Z,102658.19
2022-08-10T03:17:28.883Z,102659.94
2022-08-10T03:20:33.864Z,102655.50
2022-08-10T03:22:46.261Z,102655.47
2022-08-10T03:25:13.969Z,102665.97
2022-08-10T03:27:42.692Z,102655.38
2022-08-10T03:30:29.722Z,102662.41
2022-08-10T03:32:59.050Z,102654.41
2022-08-10T03:35:27.201Z,102655.28
2022-08-10T03:37:59.080Z,102657.91
2022-08-10T03:40:45.362Z,102657.03
2022-08-10T03:43:17.824Z,102657.84
2022-08-10T03:45:55.684Z,102665.69
2022-08-10T03:48:44.575Z,102658.59
2022-08-10T03:51:18.922Z,102662.94
2022-08-10T03:54:03.022Z,102655.94
2022-08-10T03:56:38.408Z,102665.50
2022-08-10T03:59:11.924Z,102660.97
2022-08-10T04:02:46.397Z,102659.91
2022-08-10T04:04:26.788Z,102657.94
2022-08-10T04:06:58.377Z,102674.59
2022-08-10T04:09:53.246Z,102674.66
2022-08-10T04:12:21.600Z,102670.44
2022-08-10T04:14:51.249Z,102670.75
2022-08-10T04:17:56.846Z,102671.72
2022-08-10T04:20:41.032Z,102670.94
2022-08-10T04:23:14.025Z,102670.91
2022-08-10T04:25:41.570Z,102676.09
2022-08-10T04:28:10.636Z,102670.75
2022-08-10T04:30:39.383Z,102666.22
2022-08-10T04:33:08.907Z,102671.38
2022-08-10T04:35:36.506Z,102675.78
2022-08-10T04:38:04.675Z,102679.19
2022-08-10T04:40:31.920Z,102674.66
2022-08-10T04:43:11.912Z,102685.88
2022-08-10T04:45:49.406Z,102683.19
2022-08-10T04:48:42.424Z,102688.44
2022-08-10T04:51:17.776Z,102693.72
2022-08-10T04:54:03.748Z,102697.44
2022-08-10T04:56:34.212Z,102694.13
2022-08-10T04:59:01.259Z,102699.53
2022-08-10T05:02:21.176Z,102691.69
2022-08-10T05:04:36.816Z,102705.91
2022-08-10T05:07:05.395Z,102707.69
2022-08-10T05:09:32.360Z,102699.75
2022-08-10T05:11:59.292Z,102701.41
2022-08-10T05:14:26.183Z,102705.84
2022-08-10T05:16:53.115Z,102707.63
2022-08-10T05:20:01.649Z,102706.00
2022-08-10T05:22:08.595Z,102695.56
2022-08-10T05:24:35.514Z,102702.75
2022-08-10T05:27:10.273Z,102692.31
2022-08-10T05:29:38.318Z,102698.50
2022-08-10T05:32:05.705Z,102702.00
2022-08-10T05:34:32.733Z,102690.66
2022-08-10T05:37:00.750Z,102689.84
2022-08-10T05:39:30.469Z,102697.75
2022-08-10T05:42:01.910Z,102692.63
2022-08-10T05:44:29.751Z,102693.72
2022-08-10T05:46:56.987Z,102683.28
2022-08-10T05:49:24.556Z,102689.53
2022-08-10T05:51:52.146Z,102696.63
2022-08-10T05:54:19.814Z,102694.13
2022-08-10T05:56:56.057Z,102687.19
2022-08-10T06:00:10.925Z,102686.44
2022-08-10T06:02:37.177Z,102683.88
2022-08-10T06:05:14.223Z,102683.16
2022-08-10T06:07:48.439Z,102680.59
2022-08-10T06:10:31.107Z,102683.25
2022-08-10T06:13:30.996Z,102688.63
2022-08-10T06:16:06.444Z,102682.56
2022-08-10T06:18:35.070Z,102684.38
2022-08-10T06:21:02.149Z,102673.00
2022-08-10T06:23:30.736Z,102677.44
2022-08-10T06:26:10.629Z,102674.03
2022-08-10T06:29:02.756Z,102679.34
2022-08-10T06:31:47.905Z,102677.63
2022-08-10T06:34:22.854Z,102666.22
2022-08-10T06:36:50.554Z,102677.63
2022-08-10T06:39:33.146Z,102675.91
2022-08-10T06:42:28.421Z,102678.56
2022-08-10T06:45:00.757Z,102671.53
2022-08-10T06:47:41.485Z,102668.03
2022-08-10T06:50:44.627Z,102680.34
2022-08-10T06:53:17.624Z,102674.22
2022-08-10T06:55:56.728Z,102677.75
2022-08-10T06:58:28.248Z,102666.31
2022-08-10T07:00:56.935Z,102675.09
2022-08-10T07:03:33.548Z,102674.22
2022-08-10T07:06:01.729Z,102673.28
2022-08-10T07:08:33.015Z,102670.63
2022-08-10T07:11:02.370Z,102672.34
2022-08-10T07:14:16.083Z,102677.63
2022-08-10T07:16:19.263Z,102670.47
2022-08-10T07:18:48.428Z,102667.75
2022-08-10T07:21:17.931Z,102678.28
2022-08-10T07:23:57.054Z,102676.41
2022-08-10T07:26:29.091Z,102678.09
2022-08-10T07:28:57.028Z,102667.44
2022-08-10T07:31:54.787Z,102662.00
2022-08-10T07:34:24.703Z,102664.56
2022-08-10T07:37:02.988Z,102667.13
2022-08-10T07:40:02.305Z,102677.59
2022-08-10T07:42:31.957Z,102673.97
2022-08-10T07:44:59.581Z,102674.75
2022-08-10T07:47:52.905Z,102680.84
2022-08-10T07:50:27.241Z,102673.66
2022-08-10T07:53:01.711Z,102682.34
2022-08-10T07:56:04.051Z,102681.31
2022-08-10T07:58:22.823Z,102674.13
2022-08-10T08:00:52.337Z,102669.56
2022-08-10T08:03:25.013Z,102662.38
2022-08-10T08:05:58.988Z,102657.84
2022-08-10T08:08:33.026Z,102662.13
2022-08-10T08:11:00.849Z,102654.94
2022-08-10T08:13:29.519Z,102662.81
2022-08-10T08:16:19.923Z,102658.34
2022-08-10T08:19:16.355Z,102658.31
2022-08-10T08:24:09.712Z,102661.81
2022-08-10T08:24:33.405Z,102667.00
2022-08-10T08:27:05.427Z,102664.22
2022-08-10T08:29:35.893Z,102662.28
2022-08-10T08:32:04.941Z,102672.78
2022-08-10T08:34:39.752Z,102670.09
2022-08-10T08:37:10.344Z,102675.38
2022-08-10T08:39:38.002Z,102667.34
2022-08-10T08:42:48.587Z,102670.91
2022-08-10T08:46:00.582Z,102670.72
2022-08-10T08:49:06.463Z,102667.13
2022-08-10T08:52:12.416Z,102674.91
2022-08-10T08:56:02.968Z,102674.69
2022-08-10T08:58:20.941Z,102670.94
2022-08-10T09:01:15.876Z,102667.34
2022-08-10T09:04:02.742Z,102662.81
2022-08-10T09:07:59.355Z,102664.38
2022-08-10T09:10:24.223Z,102659.81
2022-08-10T09:13:01.692Z,102650.91
2022-08-10T09:16:00.048Z,102649.88
2022-08-10T09:18:53.597Z,102651.41
2022-08-10T09:21:58.800Z,102653.88
2022-08-10T09:25:09.219Z,102644.84
2022-08-10T09:28:03.719Z,102648.19
2022-08-10T09:36:24.759Z,102640.78
2022-08-10T09:37:20.737Z,102639.69
2022-08-10T09:40:06.586Z,102634.09
2022-08-10T09:43:24.931Z,102630.28
2022-08-10T09:46:33.287Z,102628.22
2022-08-10T09:49:17.403Z,102630.78
2022-08-10T09:51:51.273Z,102626.28
2022-08-10T09:54:42.204Z,102628.03
2022-08-10T09:57:44.725Z,102623.50
2022-08-10T10:00:13.031Z,102624.28
2022-08-10T10:03:22.798Z,102613.63
2022-08-10T10:06:09.954Z,102608.16
2022-08-10T10:09:10.132Z,102613.91
2022-08-10T10:12:09.860Z,102609.06
2022-08-10T10:15:10.870Z,102610.59
2022-08-10T10:18:07.864Z,102610.44
2022-08-10T10:21:08.806Z,102614.69
2022-08-10T10:24:24.994Z,102604.88
2022-08-10T10:27:16.261Z,102602.78
2022-08-10T10:29:59.286Z,102598.00
2022-08-10T10:32:57.889Z,102600.28
2022-08-10T10:35:40.674Z,102601.16
2022-08-10T10:38:12.124Z,102596.66
2022-08-10T10:40:46.499Z,102596.50
2022-08-10T10:43:45.408Z,102584.03
2022-08-10T10:46:45.516Z,102589.13
2022-08-10T10:49:47.462Z,102588.19
2022-08-10T10:53:09.059Z,102576.31
2022-08-10T10:56:14.357Z,102571.53
2022-08-10T10:59:56.043Z,102581.06
2022-08-10T11:03:10.858Z,102572.81
2022-08-10T11:05:40.418Z,102578.63
2022-08-10T11:08:18.399Z,102577.47
2022-08-10T11:12:01.372Z,102572.75
2022-08-10T11:14:35.508Z,102570.19
2022-08-10T11:17:27.201Z,102568.34
2022-08-10T11:20:12.245Z,102570.47
2022-08-10T11:23:11.692Z,102565.59
2022-08-10T11:25:48.308Z,102569.53
2022-08-10T11:28:20.587Z,102567.53
2022-08-10T11:31:07.363Z,102568.09
2022-08-10T11:34:03.953Z,102557.81
2022-08-10T11:36:46.661Z,102559.81
2022-08-10T11:39:51.664Z,102557.38
2022-08-10T11:42:43.279Z,102548.66
2022-08-10T11:45:18.315Z,102546.28
2022-08-10T11:47:57.441Z,102546.50
2022-08-10T11:50:31.672Z,102553.25
2022-08-10T11:53:17.913Z,102546.72
2022-08-10T11:55:50.408Z,102546.59
2022-08-10T11:58:40.629Z,102542.09
2022-08-10T12:01:13.843Z,102539.28
2022-08-10T12:03:42.977Z,102544.59
2022-08-10T12:06:21.549Z,102526.88
2022-08-10T12:10:04.796Z,102532.97
2022-08-10T12:11:50.356Z,102533.78
2022-08-10T12:14:29.599Z,102522.47
2022-08-10T12:17:11.546Z,102520.22
2022-08-10T12:19:59.354Z,102520.31
2022-08-10T12:22:56.822Z,102529.50
2022-08-10T12:25:57.183Z,102526.97
2022-08-10T12:28:51.520Z,102516.44
2022-08-10T12:31:32.533Z,102510.81
2022-08-10T12:34:11.657Z,102508.69
2022-08-10T12:36:44.762Z,102503.81
2022-08-10T12:39:19.975Z,102507.97
2022-08-10T12:41:56.932Z,102495.19
2022-08-10T12:44:53.400Z,102510.00
2022-08-10T12:47:41.175Z,102505.28
2022-08-10T12:50:33.386Z,102508.59
2022-08-10T12:53:14.988Z,102497.50
2022-08-10T12:55:42.714Z,102500.63
2022-08-10T12:58:58.067Z,102494.09
2022-08-10T13:01:21.348Z,102488.53
2022-08-10T13:04:23.518Z,102487.50
2022-08-10T13:06:46.293Z,102488.75
2022-08-10T13:09:14.948Z,102484.38
2022-08-10T13:12:39.148Z,102484.03
2022-08-10T13:15:43.293Z,102481.13
2022-08-10T13:18:03.724Z,102475.63
2022-08-10T13:20:36.019Z,102471.25
2022-08-10T13:23:13.270Z,102465.25
2022-08-10T13:25:48.667Z,102457.63
2022-08-10T13:28:37.248Z,102453.63
2022-08-10T13:31:17.034Z,102456.41
2022-08-10T13:34:40.881Z,102464.13
2022-08-10T13:36:50.807Z,102452.91
2022-08-10T13:39:24.105Z,102455.03
2022-08-10T13:41:54.703Z,102445.59
2022-08-10T13:44:38.244Z,102454.09
2022-08-10T13:47:06.927Z,102450.44
2022-08-10T13:49:49.591Z,102462.41
2022-08-10T13:52:22.557Z,102449.19
2022-08-10T13:54:52.085Z,102455.47
2022-08-10T13:57:34.885Z,102451.03
2022-08-10T14:00:37.303Z,102445.47
2022-08-10T14:03:02.979Z,102446.78
2022-08-10T14:05:34.345Z,102443.91
2022-08-10T14:08:03.491Z,102434.72
2022-08-10T14:11:08.644Z,102439.94
2022-08-10T14:13:28.105Z,102432.22
2022-08-10T14:15:57.456Z,102437.94
2022-08-10T14:18:25.730Z,102435.94
2022-08-10T14:20:54.373Z,102440.13
2022-08-10T14:23:21.544Z,102431.91
2022-08-10T14:26:08.753Z,102431.59
2022-08-10T14:28:48.001Z,102433.56
2022-08-10T14:31:22.005Z,102425.09
2022-08-10T14:33:54.648Z,102410.47
2022-08-10T14:36:54.636Z,102417.03
2022-08-10T14:39:59.064Z,102407.75
2022-08-10T14:42:54.527Z,102407.66
2022-08-10T14:45:32.103Z,102410.28
2022-08-10T14:48:11.431Z,102408.19
2022-08-10T14:50:55.302Z,102402.78
2022-08-10T14:53:29.790Z,102394.78
2022-08-10T14:56:14.744Z,102397.34
2022-08-10T14:59:07.030Z,102398.81
2022-08-10T15:02:38.492Z,102402.56
2022-08-10T15:04:29.376Z,102399.81
2022-08-10T15:07:04.185Z,102396.94
2022-08-10T15:10:01.114Z,102400.38
2022-08-10T15:12:38.401Z,102405.84
2022-08-10T15:15:10.105Z,102399.78
2022-08-10T15:17:43.086Z,102398.41
2022-08-10T15:20:21.576Z,102397.06
2022-08-10T15:22:53.023Z,102390.94
2022-08-10T15:25:24.636Z,102403.25
2022-08-10T15:28:05.522Z,102394.00
2022-08-10T15:30:49.024Z,102399.00
2022-08-10T15:34:00.247Z,102394.88
2022-08-10T15:36:46.407Z,102390.09
2022-08-10T15:40:21.305Z,102389.22
2022-08-10T15:43:24.403Z,102381.47
2022-08-10T15:46:30.164Z,102387.03
2022-08-10T15:49:02.608Z,102374.81
2022-08-10T15:51:52.771Z,102380.66
2022-08-10T15:54:33.276Z,102382.91
2022-08-10T15:57:11.823Z,102384.03
2022-08-10T15:59:47.678Z,102372.53
2022-08-10T16:02:25.410Z,102375.69
2022-08-10T16:05:11.677Z,102372.66
2022-08-10T16:07:49.163Z,102375.47
2022-08-10T16:10:28.943Z,102374.81
2022-08-10T16:13:51.113Z,102364.75
2022-08-10T16:16:01.904Z,102376.28
2022-08-10T16:18:32.519Z,102370.78
2022-08-10T16:21:03.495Z,102373.47
2022-08-10T16:23:39.110Z,102374.16
2022-08-10T16:26:14.798Z,102379.44
2022-08-10T16:28:51.813Z,102375.88
2022-08-10T16:31:26.635Z,102374.88
2022-08-10T16:33:57.840Z,102371.41
2022-08-10T16:36:49.813Z,102368.25
2022-08-10T16:39:57.862Z,102359.78
2022-08-10T16:42:36.184Z,102364.81
2022-08-10T16:45:11.069Z,102372.66
2022-08-10T16:47:50.939Z,102361.03
2022-08-10T16:50:26.848Z,102367.84
2022-08-10T16:52:57.202Z,102371.16
2022-08-10T16:55:48.376Z,102369.19
2022-08-10T16:58:15.680Z,102367.84
2022-08-10T17:00:45.722Z,102370.19
2022-08-10T17:04:04.609Z,102375.69
2022-08-10T17:06:11.922Z,102367.72
2022-08-10T17:08:48.735Z,102366.97
2022-08-10T17:11:18.866Z,102367.94
2022-08-10T17:13:46.539Z,102366.94
2022-08-10T17:16:16.935Z,102365.94
2022-08-10T17:18:46.766Z,102367.28
2022-08-10T17:21:23.077Z,102364.31
2022-08-10T17:23:54.310Z,102363.91
2022-08-10T17:26:35.994Z,102356.03
2022-08-10T17:29:53.320Z,102364.72
2022-08-10T17:32:28.212Z,102365.06
2022-08-10T17:35:01.811Z,102362.63
2022-08-10T17:37:35.469Z,102360.75
2022-08-10T17:40:24.621Z,102359.13
2022-08-10T17:42:54.327Z,102358.78
2022-08-10T17:45:47.502Z,102357.59
2022-08-10T17:48:25.977Z,102366.19
2022-08-10T17:50:54.235Z,102370.19
2022-08-10T17:53:39.451Z,102361.94
2022-08-10T17:56:08.223Z,102371.25
2022-08-10T17:58:37.710Z,102368.41
2022-08-10T18:01:38.308Z,102374.50
2022-08-10T18:03:58.761Z,102371.69
2022-08-10T18:06:27.738Z,102379.88
2022-08-10T18:09:11.984Z,102368.09
2022-08-10T18:11:47.986Z,102369.53
2022-08-10T18:14:17.059Z,102370.97
2022-08-10T18:16:45.657Z,102372.19
2022-08-10T18:19:15.184Z,102368.13
2022-08-10T18:21:46.428Z,102378.88
2022-08-10T18:24:18.162Z,102381.75
2022-08-10T18:26:49.005Z,102380.22
2022-08-10T18:29:28.280Z,102380.47
2022-08-10T18:32:00.513Z,102386.03
2022-08-10T18:34:32.113Z,102384.59
2022-08-10T18:37:00.086Z,102392.97
2022-08-10T18:39:32.792Z,102393.56
2022-08-10T18:42:11.630Z,102383.50
2022-08-10T18:44:44.893Z,102382.00
2022-08-10T18:47:56.059Z,102388.47
2022-08-10T18:50:40.724Z,102396.78
2022-08-10T18:53:30.423Z,102397.06
2022-08-10T18:56:31.261Z,102392.66
2022-08-10T19:00:07.467Z,102397.13
2022-08-10T19:02:39.733Z,102405.53
2022-08-10T19:05:48.560Z,102413.78
2022-08-10T19:08:49.156Z,102412.16
2022-08-10T19:11:54.711Z,102415.06
2022-08-10T19:14:57.386Z,102426.69
2022-08-10T19:17:59.148Z,102422.28
2022-08-10T19:20:35.374Z,102421.44
2022-08-10T19:23:09.526Z,102420.63
2022-08-10T19:26:40.883Z,102423.28
2022-08-10T19:30:07.954Z,102430.53
2022-08-10T19:32:39.688Z,102427.16
2022-08-10T19:36:03.735Z,102431.78
2022-08-10T19:39:28.847Z,102436.47
2022-08-10T19:42:11.688Z,102422.66
2022-08-10T19:45:59.127Z,102427.22
2022-08-10T19:48:18.875Z,102437.16
2022-08-10T19:50:58.245Z,102425.91
2022-08-10T19:54:02.008Z,102417.25
2022-08-10T19:57:17.864Z,102424.44
2022-08-10T20:00:18.042Z,102427.94
2022-08-10T20:03:34.211Z,102426.16
2022-08-10T20:06:20.397Z,102430.56
2022-08-10T20:09:18.458Z,102430.50
2022-08-10T20:12:01.377Z,102435.72
2022-08-10T20:14:52.918Z,102428.59
2022-08-10T20:17:51.361Z,102434.72
2022-08-10T20:20:30.441Z,102430.28
2022-08-10T20:23:05.788Z,102434.66
2022-08-10T20:25:33.659Z,102431.06
2022-08-10T20:28:20.990Z,102430.25
2022-08-10T20:31:01.603Z,102424.09
2022-08-10T20:33:38.482Z,102429.41
2022-08-10T20:36:21.962Z,102431.19
2022-08-10T20:39:13.801Z,102429.47
2022-08-10T20:42:22.110Z,102424.16
2022-08-10T20:45:08.360Z,102421.59
2022-08-10T20:47:54.442Z,102434.00
2022-08-10T20:50:50.445Z,102422.59
2022-08-10T20:53:23.176Z,102424.44
2022-08-10T20:56:12.685Z,102425.41
2022-08-10T20:59:08.950Z,102425.50
2022-08-10T21:02:13.496Z,102433.56
2022-08-10T21:04:48.880Z,102432.69
2022-08-10T21:07:57.856Z,102430.97
2022-08-10T21:10:38.894Z,102441.69
2022-08-10T21:13:36.697Z,102434.66
2022-08-10T21:16:34.811Z,102428.53
2022-08-10T21:19:27.625Z,102427.72
2022-08-10T21:22:17.320Z,102433.97
2022-08-10T21:25:01.882Z,102434.09
2022-08-10T21:28:29.217Z,102419.19
2022-08-10T21:31:37.445Z,102423.72
2022-08-10T21:34:54.233Z,102428.19
2022-08-10T21:38:05.445Z,102417.66
2022-08-10T21:41:18.373Z,102420.38
2022-08-10T21:44:14.013Z,102417.78
2022-08-10T21:47:38.031Z,102416.09
2022-08-10T21:50:29.857Z,102417.03
2022-08-10T21:53:48.359Z,102420.69
2022-08-10T21:56:47.945Z,102413.78
2022-08-10T22:02:59.475Z,102419.22
2022-08-10T22:05:54.932Z,102421.06
2022-08-10T22:09:07.244Z,102415.81
2022-08-10T22:12:01.500Z,102416.78
2022-08-10T22:14:57.404Z,102420.38
2022-08-10T22:17:59.704Z,102419.50
2022-08-10T22:20:56.197Z,102402.00
2022-08-10T22:23:41.755Z,102413.56
2022-08-10T22:26:36.583Z,102402.16
2022-08-10T22:29:42.413Z,102404.84
2022-08-10T22:31:26.831Z,102420.91
2022-08-10T22:33:06.012Z,102403.09
2022-08-10T22:36:39.881Z,102396.06
2022-08-10T22:40:11.821Z,102396.09
2022-08-10T22:42:59.422Z,102386.44
2022-08-10T22:46:05.730Z,102392.63
2022-08-10T22:49:02.495Z,102395.31
2022-08-10T22:51:51.951Z,102390.06
2022-08-10T22:55:07.102Z,102389.22
2022-08-10T22:57:52.903Z,102383.06
2022-08-10T23:00:31.445Z,102393.69
2022-08-10T23:03:22.437Z,102384.91
2022-08-10T23:05:58.851Z,102387.56
2022-08-10T23:08:45.387Z,102385.81
2022-08-10T23:11:30.300Z,102378.81
2022-08-10T23:14:03.735Z,102379.72
2022-08-10T23:17:02.525Z,102381.50
2022-08-10T23:19:33.123Z,102385.94
2022-08-10T23:22:10.379Z,102383.31
2022-08-10T23:24:51.978Z,102381.59
2022-08-10T23:27:38.966Z,102378.06
2022-08-10T23:30:16.279Z,102379.84
2022-08-10T23:32:59.357Z,102376.34
2022-08-10T23:36:30.826Z,102381.66
2022-08-10T23:38:22.075Z,102370.25
2022-08-10T23:40:53.493Z,102381.72
2022-08-10T23:44:00.433Z,102371.13
2022-08-10T23:46:24.278Z,102371.16
2022-08-10T23:48:55.177Z,102372.94
2022-08-10T23:51:54.736Z,102373.88
2022-08-10T23:54:24.181Z,102366.84
2022-08-10T23:56:54.608Z,102367.72
2022-08-10T23:59:23.857Z,102369.50
